createdAt,value
2023-09-07T00:01:08.042Z,78.21
2023-09-07T00:03:35.217Z,78.05
2023-09-07T00:06:02.288Z,78.31
2023-09-07T00:08:29.707Z,78.37
2023-09-07T00:10:57.016Z,78.50
2023-09-07T00:13:24.007Z,78.54
2023-09-07T00:15:51.042Z,78.46
2023-09-07T00:18:20.219Z,78.40
2023-09-07T00:20:47.487Z,78.57
2023-09-07T00:23:14.565Z,78.84
2023-09-07T00:25:41.578Z,79.02
2023-09-07T00:28:08.771Z,79.14
2023-09-07T00:30:35.837Z,79.27
2023-09-07T00:33:02.937Z,79.49
2023-09-07T00:35:30.077Z,79.83
2023-09-07T00:37:57.125Z,79.83
2023-09-07T00:40:24.705Z,80.08
2023-09-07T00:42:51.772Z,80.15
2023-09-07T00:45:18.809Z,80.29
2023-09-07T00:47:46.162Z,80.40
2023-09-07T00:50:17.693Z,80.46
2023-09-07T00:52:44.675Z,80.77
2023-09-07T00:55:11.708Z,81.21
2023-09-07T00:57:40.805Z,81.22
2023-09-07T01:00:09.191Z,81.34
2023-09-07T01:02:36.766Z,81.36
2023-09-07T01:05:06.736Z,81.58
2023-09-07T01:07:37.631Z,81.88
2023-09-07T01:10:05.512Z,81.97
2023-09-07T01:12:32.641Z,82.09
2023-09-07T01:14:59.736Z,82.25
2023-09-07T01:17:27.180Z,82.57
2023-09-07T01:19:54.331Z,83.04
2023-09-07T01:22:24.133Z,83.68
2023-09-07T01:24:52.441Z,83.96
2023-09-07T01:27:20.004Z,84.09
2023-09-07T01:29:46.947Z,84.22
2023-09-07T01:32:14.980Z,84.47
2023-09-07T01:34:42.241Z,84.67
2023-09-07T01:37:09.725Z,84.79
2023-09-07T01:39:37.257Z,84.78
2023-09-07T01:42:04.427Z,84.71
2023-09-07T01:44:31.498Z,84.79
2023-09-07T01:46:58.663Z,84.87
2023-09-07T01:49:25.973Z,85.04
2023-09-07T01:51:53.802Z,85.38
2023-09-07T01:54:22.480Z,85.28
2023-09-07T01:56:49.629Z,85.58
2023-09-07T01:59:16.690Z,85.63
2023-09-07T02:01:43.818Z,85.76
2023-09-07T02:04:11.044Z,85.73
2023-09-07T02:06:38.063Z,85.69
2023-09-07T02:09:05.709Z,85.71
2023-09-07T02:11:32.974Z,86.00
2023-09-07T02:14:00.152Z,86.01
2023-09-07T02:16:28.116Z,86.15
2023-09-07T02:19:02.451Z,86.25
2023-09-07T02:21:29.618Z,86.57
2023-09-07T02:23:56.710Z,86.66
2023-09-07T02:26:23.845Z,86.95
2023-09-07T02:28:50.805Z,86.96
2023-09-07T02:31:18.390Z,87.09
2023-09-07T02:33:45.447Z,86.78
2023-09-07T02:36:13.195Z,86.87
2023-09-07T02:38:40.272Z,86.91
2023-09-07T02:41:07.431Z,86.82
2023-09-07T02:43:34.583Z,86.92
2023-09-07T02:46:01.988Z,86.78
2023-09-07T02:48:29.113Z,86.92
2023-09-07T02:50:59.911Z,86.76
2023-09-07T02:53:27.290Z,86.71
2023-09-07T02:55:54.353Z,86.58
2023-09-07T02:58:23.305Z,86.59
2023-09-07T03:00:51.102Z,86.47
2023-09-07T03:03:19.569Z,86.42
2023-09-07T03:05:46.846Z,86.37
2023-09-07T03:08:14.682Z,86.42
2023-09-07T03:10:42.265Z,86.46
2023-09-07T03:13:09.706Z,86.61
2023-09-07T03:15:37.158Z,86.64
2023-09-07T03:18:07.235Z,86.80
2023-09-07T03:20:35.750Z,86.94
2023-09-07T03:23:03.842Z,87.25
2023-09-07T03:25:31.734Z,87.29
2023-09-07T03:27:58.941Z,87.39
2023-09-07T03:30:26.313Z,87.71
2023-09-07T03:32:54.303Z,87.98
2023-09-07T03:35:21.574Z,88.12
2023-09-07T03:37:48.786Z,88.42
2023-09-07T03:40:15.897Z,88.50
2023-09-07T03:42:44.636Z,88.69
2023-09-07T03:45:12.204Z,88.45
2023-09-07T03:47:39.709Z,88.48
2023-09-07T03:50:07.568Z,88.73
2023-09-07T03:52:34.773Z,88.98
2023-09-07T03:55:02.674Z,89.17
2023-09-07T03:57:30.270Z,89.35
2023-09-07T03:59:57.919Z,89.45
2023-09-07T04:02:25.248Z,89.45
2023-09-07T04:04:56.601Z,89.49
2023-09-07T04:07:23.754Z,89.33
2023-09-07T04:09:51.344Z,89.11
2023-09-07T04:12:18.728Z,89.09
2023-09-07T04:14:46.028Z,88.84
2023-09-07T04:17:13.573Z,88.83
2023-09-07T04:19:41.150Z,88.57
2023-09-07T04:22:08.338Z,88.23
2023-09-07T04:24:35.346Z,88.26
2023-09-07T04:27:02.914Z,88.11
2023-09-07T04:29:30.361Z,87.56
2023-09-07T04:31:57.929Z,87.38
2023-09-07T04:34:25.573Z,87.17
2023-09-07T04:36:53.446Z,87.19
2023-09-07T04:39:20.632Z,87.21
2023-09-07T04:41:47.971Z,87.07
2023-09-07T04:44:16.209Z,87.21
2023-09-07T04:46:43.919Z,87.34
2023-09-07T04:49:11.694Z,86.63
2023-09-07T04:51:38.773Z,86.31
2023-09-07T04:54:06.751Z,86.40
2023-09-07T04:56:34.163Z,86.27
2023-09-07T04:59:01.804Z,85.84
2023-09-07T05:01:29.694Z,85.15
2023-09-07T05:03:56.983Z,85.36
2023-09-07T05:06:24.676Z,85.37
2023-09-07T05:08:52.576Z,84.70
2023-09-07T05:11:19.703Z,83.72
2023-09-07T05:13:47.147Z,83.41
2023-09-07T05:16:14.294Z,81.50
2023-09-07T05:18:42.595Z,79.77
2023-09-07T05:21:16.543Z,76.87
2023-09-07T05:23:44.170Z,73.26
2023-09-07T05:26:11.827Z,70.07
2023-09-07T05:28:41.284Z,68.05
2023-09-07T05:31:09.068Z,67.45
2023-09-07T05:33:36.663Z,67.62
2023-09-07T05:36:04.132Z,66.92
2023-09-07T05:38:33.971Z,66.93
2023-09-07T05:41:01.803Z,66.37
2023-09-07T05:43:29.181Z,65.34
2023-09-07T05:45:57.004Z,66.01
2023-09-07T05:48:24.569Z,66.05
2023-09-07T05:50:51.940Z,64.88
2023-09-07T05:53:22.349Z,63.85
2023-09-07T05:55:49.699Z,63.81
2023-09-07T05:58:17.462Z,63.40
2023-09-07T06:00:45.135Z,63.98
2023-09-07T06:03:12.542Z,64.61
2023-09-07T06:05:40.799Z,65.06
2023-09-07T06:08:08.900Z,64.85
2023-09-07T06:13:06.834Z,64.12
2023-09-07T06:15:34.540Z,63.77
2023-09-07T06:18:03.130Z,63.58
2023-09-07T06:20:30.695Z,62.84
2023-09-07T06:23:00.153Z,61.12
2023-09-07T06:25:28.802Z,59.52
2023-09-07T06:27:57.355Z,59.57
2023-09-07T06:30:25.229Z,60.09
2023-09-07T06:32:53.935Z,59.03
2023-09-07T06:35:21.264Z,59.36
2023-09-07T06:37:48.787Z,58.81
2023-09-07T06:40:19.490Z,58.90
2023-09-07T06:42:50.540Z,58.52
2023-09-07T06:45:20.509Z,56.99
2023-09-07T06:47:50.714Z,55.62
2023-09-07T06:50:18.364Z,54.40
2023-09-07T06:52:45.461Z,52.73
2023-09-07T06:55:12.407Z,52.14
2023-09-07T06:57:39.747Z,52.16
2023-09-07T07:00:09.009Z,51.71
2023-09-07T07:02:37.518Z,51.45
2023-09-07T07:05:05.045Z,49.87
2023-09-07T07:07:33.497Z,49.81
2023-09-07T07:10:00.603Z,50.03
2023-09-07T07:12:27.962Z,50.61
2023-09-07T07:14:56.350Z,51.20
2023-09-07T07:17:23.666Z,51.23
2023-09-07T07:19:51.020Z,49.95
2023-09-07T07:22:21.160Z,49.92
2023-09-07T07:24:49.850Z,48.86
2023-09-07T07:27:17.161Z,47.65
2023-09-07T07:29:44.908Z,47.75
2023-09-07T07:32:12.377Z,47.55
2023-09-07T07:34:39.664Z,47.07
2023-09-07T07:37:07.546Z,46.86
2023-09-07T07:39:35.044Z,46.92
2023-09-07T07:42:04.436Z,44.99
2023-09-07T07:44:31.825Z,44.33
2023-09-07T07:46:59.158Z,44.56
2023-09-07T07:49:26.348Z,44.82
2023-09-07T07:51:56.811Z,43.87
2023-09-07T07:54:26.030Z,43.95
2023-09-07T07:56:53.904Z,43.90
2023-09-07T07:59:21.528Z,43.54
2023-09-07T08:01:48.654Z,42.32
2023-09-07T08:04:15.988Z,42.25
2023-09-07T08:06:43.220Z,40.89
2023-09-07T08:09:11.399Z,40.98
2023-09-07T08:11:40.812Z,41.23
2023-09-07T08:14:08.181Z,41.41
2023-09-07T08:16:35.578Z,41.07
2023-09-07T08:19:02.856Z,41.01
2023-09-07T08:21:30.119Z,40.24
2023-09-07T08:23:57.655Z,39.40
2023-09-07T08:26:24.642Z,39.53
2023-09-07T08:28:51.701Z,40.58
2023-09-07T08:31:23.238Z,41.48
2023-09-07T08:33:52.864Z,41.30
2023-09-07T08:36:23.687Z,39.36
2023-09-07T08:38:56.941Z,38.21
2023-09-07T08:41:24.061Z,38.49
2023-09-07T08:43:51.265Z,39.97
2023-09-07T08:46:22.358Z,40.75
2023-09-07T08:48:50.626Z,41.43
2023-09-07T08:51:19.234Z,40.77
2023-09-07T08:53:47.975Z,39.88
2023-09-07T08:56:15.820Z,40.44
2023-09-07T08:58:46.187Z,40.57
2023-09-07T09:01:14.436Z,41.35
2023-09-07T09:03:41.720Z,40.94
2023-09-07T09:06:08.832Z,41.39
2023-09-07T09:08:53.628Z,41.22
2023-09-07T09:11:21.803Z,40.78
2023-09-07T09:13:49.868Z,40.82
2023-09-07T09:16:18.891Z,41.34
2023-09-07T09:18:50.110Z,42.57
2023-09-07T09:21:17.692Z,42.84
2023-09-07T09:23:44.700Z,42.33
2023-09-07T09:26:12.116Z,41.38
2023-09-07T09:28:39.400Z,40.18
2023-09-07T09:31:11.195Z,41.15
2023-09-07T09:33:38.871Z,41.36
2023-09-07T09:36:07.166Z,40.76
2023-09-07T09:38:35.970Z,39.84
2023-09-07T09:41:04.486Z,41.05
2023-09-07T09:43:31.471Z,41.69
2023-09-07T09:45:59.603Z,42.66
2023-09-07T09:48:27.041Z,41.92
2023-09-07T09:50:54.114Z,40.80
2023-09-07T09:53:22.283Z,40.13
2023-09-07T09:55:49.720Z,40.20
2023-09-07T09:58:17.535Z,39.98
2023-09-07T10:00:49.583Z,38.63
2023-09-07T10:03:32.536Z,39.12
2023-09-07T10:06:12.423Z,39.65
2023-09-07T10:08:39.412Z,39.56
2023-09-07T10:11:10.821Z,38.79
2023-09-07T10:13:37.834Z,38.17
2023-09-07T10:16:09.117Z,37.68
2023-09-07T10:18:37.009Z,36.82
2023-09-07T10:21:04.402Z,36.36
2023-09-07T10:23:42.506Z,36.11
2023-09-07T10:26:19.688Z,34.97
2023-09-07T10:28:47.259Z,34.56
2023-09-07T10:31:19.327Z,34.64
2023-09-07T10:33:47.038Z,35.56
2023-09-07T10:36:27.403Z,35.88
2023-09-07T10:38:57.170Z,35.99
2023-09-07T10:41:24.165Z,33.96
2023-09-07T10:43:57.658Z,33.93
2023-09-07T10:46:24.913Z,33.46
2023-09-07T10:48:52.843Z,34.01
2023-09-07T10:51:20.564Z,33.89
2023-09-07T10:53:47.513Z,33.54
2023-09-07T10:56:14.666Z,32.97
2023-09-07T10:58:43.250Z,32.78
2023-09-07T11:01:10.683Z,32.69
2023-09-07T11:03:38.293Z,32.52
2023-09-07T11:06:14.123Z,32.59
2023-09-07T11:08:41.172Z,33.19
2023-09-07T11:11:09.777Z,33.60
2023-09-07T11:13:37.060Z,33.21
2023-09-07T11:16:04.983Z,34.14
2023-09-07T11:18:32.272Z,34.41
2023-09-07T11:21:01.062Z,33.85
2023-09-07T11:23:28.888Z,33.73
2023-09-07T11:25:55.862Z,33.36
2023-09-07T11:28:25.969Z,33.54
2023-09-07T11:30:54.773Z,33.50
2023-09-07T11:33:22.774Z,33.24
2023-09-07T11:35:50.239Z,33.53
2023-09-07T11:38:17.939Z,33.53
2023-09-07T11:40:46.295Z,33.68
2023-09-07T11:43:14.111Z,32.93
2023-09-07T11:45:41.905Z,33.00
2023-09-07T11:48:10.577Z,32.94
2023-09-07T11:50:38.167Z,32.74
2023-09-07T11:53:06.056Z,32.81
2023-09-07T11:55:33.650Z,32.06
2023-09-07T11:58:02.133Z,31.97
2023-09-07T12:00:30.976Z,32.55
2023-09-07T12:02:58.572Z,32.06
2023-09-07T12:05:25.774Z,31.83
2023-09-07T12:07:54.187Z,31.50
2023-09-07T12:10:21.712Z,30.98
2023-09-07T12:12:49.289Z,30.52
2023-09-07T12:15:16.326Z,31.05
2023-09-07T12:17:44.006Z,31.98
2023-09-07T12:20:12.169Z,32.13
2023-09-07T12:22:39.569Z,32.53
2023-09-07T12:25:16.013Z,32.40
2023-09-07T12:27:54.331Z,32.69
2023-09-07T12:30:24.108Z,32.51
2023-09-07T12:32:52.588Z,32.55
2023-09-07T12:35:21.159Z,32.67
2023-09-07T12:37:48.401Z,32.93
2023-09-07T12:40:16.099Z,33.57
2023-09-07T12:42:44.684Z,33.54
2023-09-07T12:45:12.015Z,32.92
2023-09-07T12:47:39.931Z,32.66
2023-09-07T12:50:07.995Z,32.84
2023-09-07T12:52:37.601Z,32.73
2023-09-07T12:55:08.896Z,32.59
2023-09-07T12:57:37.367Z,32.98
2023-09-07T13:00:08.425Z,33.02
2023-09-07T13:02:35.770Z,32.85
2023-09-07T13:05:06.520Z,32.78
2023-09-07T13:07:33.909Z,32.49
2023-09-07T13:10:03.656Z,32.29
2023-09-07T13:12:32.628Z,32.33
2023-09-07T13:14:59.724Z,32.60
2023-09-07T13:17:26.836Z,32.16
2023-09-07T13:19:53.904Z,32.26
2023-09-07T13:22:20.847Z,32.01
2023-09-07T13:24:47.940Z,32.18
2023-09-07T13:27:14.879Z,32.86
2023-09-07T13:29:41.883Z,32.35
2023-09-07T13:32:10.139Z,32.54
2023-09-07T13:34:37.215Z,32.71
2023-09-07T13:37:04.342Z,32.44
2023-09-07T13:39:31.307Z,32.58
2023-09-07T13:41:58.391Z,32.57
2023-09-07T13:44:25.474Z,32.99
2023-09-07T13:46:54.658Z,33.34
2023-09-07T13:49:21.908Z,33.04
2023-09-07T13:51:49.108Z,33.35
2023-09-07T13:54:16.811Z,33.09
2023-09-07T13:56:46.071Z,33.04
2023-09-07T13:59:13.150Z,33.91
2023-09-07T14:01:40.105Z,34.24
2023-09-07T14:04:07.543Z,34.50
2023-09-07T14:06:34.726Z,34.64
2023-09-07T14:09:01.777Z,34.00
2023-09-07T14:11:28.788Z,34.20
2023-09-07T14:13:56.267Z,34.42
2023-09-07T14:16:24.141Z,34.47
2023-09-07T14:18:51.541Z,34.37
2023-09-07T14:21:19.022Z,34.77
2023-09-07T14:23:46.678Z,35.26
2023-09-07T14:26:14.027Z,35.26
2023-09-07T14:28:41.013Z,35.02
2023-09-07T14:31:09.384Z,35.21
2023-09-07T14:33:40.134Z,35.62
2023-09-07T14:36:08.024Z,35.81
2023-09-07T14:38:41.798Z,35.12
2023-09-07T14:41:12.685Z,35.23
2023-09-07T14:43:39.893Z,35.94
2023-09-07T14:46:07.208Z,36.16
2023-09-07T14:48:34.290Z,36.17
2023-09-07T14:51:01.329Z,36.22
2023-09-07T14:53:28.405Z,36.20
2023-09-07T14:55:55.322Z,36.41
2023-09-07T14:58:22.494Z,36.85
2023-09-07T15:00:49.516Z,36.75
2023-09-07T15:03:19.637Z,37.00
2023-09-07T15:05:46.656Z,37.15
2023-09-07T15:08:13.909Z,37.24
2023-09-07T15:10:41.664Z,37.24
2023-09-07T15:13:09.459Z,37.13
2023-09-07T15:15:41.105Z,37.35
2023-09-07T15:18:08.744Z,37.23
2023-09-07T15:20:36.555Z,37.12
2023-09-07T15:23:04.687Z,37.03
2023-09-07T15:25:32.045Z,36.89
2023-09-07T15:27:59.290Z,36.97
2023-09-07T15:30:26.360Z,37.11
2023-09-07T15:32:53.546Z,36.86
2023-09-07T15:35:20.784Z,37.12
2023-09-07T15:37:48.265Z,37.20
2023-09-07T15:40:15.393Z,37.48
2023-09-07T15:42:42.635Z,37.38
2023-09-07T15:45:10.391Z,37.83
2023-09-07T15:47:38.611Z,37.83
2023-09-07T15:50:08.371Z,38.49
2023-09-07T15:52:45.135Z,38.58
2023-09-07T15:55:12.244Z,38.54
2023-09-07T15:57:39.394Z,38.87
2023-09-07T16:00:08.370Z,38.91
2023-09-07T16:02:39.895Z,38.92
2023-09-07T16:05:07.379Z,38.85
2023-09-07T16:07:34.950Z,38.77
2023-09-07T16:10:02.072Z,39.09
2023-09-07T16:12:29.375Z,39.27
2023-09-07T16:14:56.478Z,39.28
2023-09-07T16:17:23.669Z,39.41
2023-09-07T16:19:50.685Z,39.50
2023-09-07T16:22:17.778Z,39.69
2023-09-07T16:24:45.376Z,39.83
2023-09-07T16:27:12.347Z,39.94
2023-09-07T16:29:44.577Z,40.28
2023-09-07T16:32:13.664Z,40.55
2023-09-07T16:34:42.149Z,40.80
2023-09-07T16:37:09.333Z,40.69
2023-09-07T16:39:36.486Z,41.05
2023-09-07T16:42:06.329Z,41.47
2023-09-07T16:44:33.552Z,41.57
2023-09-07T16:47:00.579Z,41.78
2023-09-07T16:49:27.632Z,42.11
2023-09-07T16:51:54.770Z,42.24
2023-09-07T16:54:21.812Z,42.63
2023-09-07T16:56:49.192Z,43.10
2023-09-07T17:01:47.540Z,43.48
2023-09-07T17:04:14.583Z,43.53
2023-09-07T17:06:42.679Z,44.19
2023-09-07T17:09:10.026Z,44.57
2023-09-07T17:11:37.223Z,45.00
2023-09-07T17:14:04.558Z,44.81
2023-09-07T17:16:31.823Z,45.12
2023-09-07T17:18:59.237Z,45.59
2023-09-07T17:21:26.237Z,45.99
2023-09-07T17:23:53.252Z,46.22
2023-09-07T17:26:20.286Z,46.06
2023-09-07T17:28:47.610Z,46.45
2023-09-07T17:31:15.978Z,46.64
2023-09-07T17:33:43.371Z,46.74
2023-09-07T17:36:17.781Z,46.93
2023-09-07T17:38:44.961Z,46.76
2023-09-07T17:41:12.709Z,46.72
2023-09-07T17:43:40.941Z,46.81
2023-09-07T17:46:09.309Z,46.65
2023-09-07T17:48:36.893Z,46.57
2023-09-07T17:51:04.896Z,46.84
2023-09-07T17:53:34.741Z,46.94
2023-09-07T17:56:08.736Z,47.04
2023-09-07T17:58:36.794Z,47.61
2023-09-07T18:01:04.302Z,48.32
2023-09-07T18:03:31.736Z,49.06
2023-09-07T18:05:58.800Z,48.61
2023-09-07T18:08:25.864Z,48.66
2023-09-07T18:10:52.865Z,49.21
2023-09-07T18:13:19.995Z,49.64
2023-09-07T18:15:47.667Z,50.02
2023-09-07T18:18:15.728Z,50.86
2023-09-07T18:20:43.107Z,50.97
2023-09-07T18:23:10.331Z,50.86
2023-09-07T18:25:39.688Z,51.45
2023-09-07T18:30:22.811Z,51.91
2023-09-07T18:32:51.720Z,52.55
2023-09-07T18:35:19.141Z,52.86
2023-09-07T18:37:46.905Z,53.04
2023-09-07T18:40:14.023Z,53.63
2023-09-07T18:42:41.417Z,54.33
2023-09-07T18:45:09.801Z,54.70
2023-09-07T18:47:38.906Z,55.21
2023-09-07T18:50:08.998Z,55.51
2023-09-07T18:52:38.231Z,55.45
2023-09-07T18:55:09.319Z,55.42
2023-09-07T18:57:36.612Z,55.26
2023-09-07T19:00:06.097Z,55.38
2023-09-07T19:02:33.385Z,55.81
2023-09-07T19:05:00.824Z,56.26
2023-09-07T19:07:28.229Z,56.72
2023-09-07T19:09:56.736Z,56.90
2023-09-07T19:12:24.181Z,57.26
2023-09-07T19:14:51.318Z,57.60
2023-09-07T19:17:19.535Z,57.83
2023-09-07T19:19:48.321Z,58.05
2023-09-07T19:22:15.325Z,57.83
2023-09-07T19:24:43.624Z,58.22
2023-09-07T19:27:10.887Z,58.76
2023-09-07T19:29:41.324Z,59.14
2023-09-07T19:32:09.193Z,59.32
2023-09-07T19:34:37.091Z,59.45
2023-09-07T19:37:04.455Z,59.37
2023-09-07T19:39:31.564Z,59.89
2023-09-07T19:41:59.015Z,60.31
2023-09-07T19:44:26.845Z,60.51
2023-09-07T19:46:54.860Z,60.88
2023-09-07T19:49:23.192Z,61.31
2023-09-07T19:51:50.870Z,61.77
2023-09-07T19:54:18.369Z,61.99
2023-09-07T19:56:45.872Z,61.45
2023-09-07T19:59:13.354Z,61.81
2023-09-07T20:02:00.063Z,61.70
2023-09-07T20:04:27.719Z,61.74
2023-09-07T20:06:55.888Z,62.35
2023-09-07T20:09:23.003Z,62.36
2023-09-07T20:11:50.187Z,62.14
2023-09-07T20:14:17.670Z,62.46
2023-09-07T20:16:45.351Z,62.36
2023-09-07T20:19:13.945Z,62.55
2023-09-07T20:21:41.076Z,62.29
2023-09-07T20:24:09.949Z,62.07
2023-09-07T20:26:37.340Z,61.60
2023-09-07T20:29:07.651Z,61.07
2023-09-07T20:31:34.860Z,61.25
2023-09-07T20:34:01.853Z,61.36
2023-09-07T20:36:28.999Z,61.50
2023-09-07T20:38:56.189Z,61.22
2023-09-07T20:41:23.333Z,61.50
2023-09-07T20:43:50.390Z,61.75
2023-09-07T20:46:17.606Z,61.91
2023-09-07T20:48:44.795Z,62.05
2023-09-07T20:51:11.832Z,62.51
2023-09-07T20:53:38.989Z,62.74
2023-09-07T20:56:06.048Z,63.23
2023-09-07T20:58:33.429Z,63.58
2023-09-07T21:01:04.029Z,63.76
2023-09-07T21:03:31.910Z,64.15
2023-09-07T21:05:59.098Z,64.70
2023-09-07T21:08:26.302Z,65.50
2023-09-07T21:10:54.982Z,64.95
2023-09-07T21:13:22.013Z,64.61
2023-09-07T21:15:49.204Z,65.02
2023-09-07T21:18:16.501Z,65.25
2023-09-07T21:20:43.718Z,65.25
2023-09-07T21:23:12.199Z,65.49
2023-09-07T21:25:39.412Z,65.46
2023-09-07T21:28:06.973Z,65.56
2023-09-07T21:30:34.142Z,65.67
2023-09-07T21:33:01.404Z,65.89
2023-09-07T21:35:28.459Z,65.86
2023-09-07T21:37:55.739Z,66.24
2023-09-07T21:40:23.121Z,66.45
2023-09-07T21:42:50.231Z,66.74
2023-09-07T21:45:17.155Z,66.69
2023-09-07T21:47:44.109Z,66.90
2023-09-07T21:50:11.259Z,67.06
2023-09-07T21:52:38.244Z,67.06
2023-09-07T21:55:05.589Z,67.16
2023-09-07T21:57:32.844Z,67.39
2023-09-07T21:59:59.798Z,67.50
2023-09-07T22:02:27.278Z,67.65
2023-09-07T22:04:54.448Z,67.86
2023-09-07T22:07:21.908Z,67.55
2023-09-07T22:09:49.634Z,67.56
2023-09-07T22:12:16.804Z,67.69
2023-09-07T22:14:43.686Z,67.64
2023-09-07T22:17:12.813Z,67.09
2023-09-07T22:19:40.314Z,66.89
2023-09-07T22:22:07.455Z,66.66
2023-09-07T22:24:34.865Z,66.90
2023-09-07T22:27:01.902Z,67.47
2023-09-07T22:29:29.176Z,67.88
2023-09-07T22:31:56.329Z,67.67
2023-09-07T22:34:23.367Z,67.46
2023-09-07T22:36:50.626Z,67.74
2023-09-07T22:39:17.552Z,67.88
2023-09-07T22:41:44.601Z,68.32
2023-09-07T22:44:11.920Z,68.75
2023-09-07T22:46:39.049Z,68.81
2023-09-07T22:49:05.974Z,68.80
2023-09-07T22:51:33.225Z,69.18
2023-09-07T22:54:00.330Z,69.40
2023-09-07T22:56:27.402Z,69.54
2023-09-07T22:58:54.543Z,69.80
2023-09-07T23:01:21.484Z,70.49
2023-09-07T23:03:48.523Z,70.46
2023-09-07T23:06:15.624Z,70.52
2023-09-07T23:08:43.913Z,70.62
2023-09-07T23:11:13.153Z,70.74
2023-09-07T23:13:40.827Z,71.07
2023-09-07T23:16:08.329Z,71.63
2023-09-07T23:18:35.676Z,71.76
2023-09-07T23:21:02.970Z,71.98
2023-09-07T23:23:30.995Z,71.74
2023-09-07T23:25:58.084Z,71.68
2023-09-07T23:28:25.136Z,71.90
2023-09-07T23:30:52.366Z,72.06
2023-09-07T23:33:19.309Z,72.21
2023-09-07T23:35:46.324Z,72.42
2023-09-07T23:38:13.535Z,72.71
2023-09-07T23:40:40.517Z,72.93
2023-09-07T23:43:07.645Z,72.92
2023-09-07T23:45:34.737Z,73.09
2023-09-07T23:48:01.908Z,73.24
2023-09-07T23:50:29.089Z,73.49
2023-09-07T23:52:56.066Z,73.66
2023-09-07T23:55:23.019Z,73.82
2023-09-07T23:57:50.144Z,73.87
